TimeEST,TemperatureF,Dew PointF,Humidity,Sea Level PressureIn,VisibilityMPH,Wind Direction,Wind SpeedMPH,Gust SpeedMPH,PrecipitationIn,Events,Conditions,WindDirDegrees,DateUTC
12:35 AM,39.2,26.6,61,29.88,10.0,SW,6.9,-,N/A,,Clear,220,2013-01-20 05:35:00
1:15 AM,39.2,26.6,61,29.85,10.0,SW,5.8,-,N/A,,Clear,230,2013-01-20 06:15:00
1:35 AM,39.2,26.6,61,29.85,10.0,SSW,5.8,-,N/A,,Clear,210,2013-01-20 06:35:00
1:55 AM,39.2,26.6,61,29.84,10.0,SSW,8.1,-,N/A,,Clear,200,2013-01-20 06:55:00
2:15 AM,37.4,26.6,65,29.84,10.0,SW,4.6,-,N/A,,Clear,230,2013-01-20 07:15:00
2:35 AM,37.4,26.6,65,29.83,10.0,WSW,5.8,-,N/A,,Clear,240,2013-01-20 07:35:00
2:55 AM,37.4,26.6,65,29.83,10.0,SW,8.1,-,N/A,,Clear,220,2013-01-20 07:55:00
3:15 AM,37.4,26.6,65,29.82,10.0,SW,8.1,-,N/A,,Clear,220,2013-01-20 08:15:00
3:35 AM,37.4,26.6,65,29.81,10.0,SW,6.9,-,N/A,,Clear,220,2013-01-20 08:35:00
3:55 AM,37.4,26.6,65,29.80,10.0,SW,5.8,-,N/A,,Clear,220,2013-01-20 08:55:00
4:15 AM,35.6,26.6,70,29.79,10.0,SW,5.8,-,N/A,,Clear,220,2013-01-20 09:15:00
4:35 AM,35.6,26.6,70,29.78,10.0,SW,4.6,-,N/A,,Clear,230,2013-01-20 09:35:00
4:55 AM,35.6,26.6,70,29.76,10.0,SW,5.8,-,N/A,,Clear,220,2013-01-20 09:55:00
5:15 AM,35.6,26.6,70,29.75,10.0,SW,5.8,-,N/A,,Clear,230,2013-01-20 10:15:00
5:35 AM,35.6,26.6,70,29.74,10.0,SSW,6.9,-,N/A,,Clear,210,2013-01-20 10:35:00
5:45 AM,35.6,26.6,70,29.73,10.0,SW,5.8,-,N/A,,Clear,230,2013-01-20 10:45:00
6:45 AM,35.6,26.6,70,29.73,10.0,WSW,6.9,-,N/A,,Clear,240,2013-01-20 11:45:00
9:45 AM,42.8,28.4,57,29.72,10.0,WSW,6.9,18.4,N/A,,Clear,240,2013-01-20 14:45:00
10:45 AM,48.2,28.4,46,29.69,10.0,WSW,12.7,26.5,N/A,,Clear,240,2013-01-20 15:45:00
11:45 AM,48.2,28.4,46,29.66,10.0,WSW,11.5,29.9,N/A,,Clear,250,2013-01-20 16:45:00
12:45 PM,48.2,28.4,46,29.64,10.0,West,9.2,26.5,N/A,,Scattered Clouds,260,2013-01-20 17:45:00
1:45 PM,46.4,26.6,46,29.66,10.0,West,11.5,26.5,N/A,,Scattered Clouds,280,2013-01-20 18:45:00
2:45 PM,48.2,24.8,40,29.68,10.0,WNW,9.2,17.3,N/A,,Clear,300,2013-01-20 19:45:00
4:45 PM,44.6,15.8,31,29.77,10.0,NW,11.5,20.7,N/A,,Clear,310,2013-01-20 21:45:00
5:45 PM,37.4,10.4,33,29.83,10.0,NW,11.5,28.8,N/A,,Clear,310,2013-01-20 22:45:00
6:45 PM,37.4,10.4,33,29.85,10.0,WNW,12.7,23.0,N/A,,Clear,300,2013-01-20 23:45:00
7:45 PM,33.8,10.4,38,29.90,10.0,WNW,11.5,23.0,N/A,,Clear,300,2013-01-21 00:45:00
8:55 PM,30.2,10.4,44,29.93,10.0,NW,10.4,20.7,N/A,,Clear,310,2013-01-21 01:55:00
9:35 PM,30.2,10.4,44,29.95,10.0,NW,6.9,21.9,N/A,,Clear,310,2013-01-21 02:35:00
9:55 PM,28.4,10.4,47,29.96,10.0,NNW,10.4,20.7,N/A,,Clear,330,2013-01-21 02:55:00
10:15 PM,28.4,10.4,47,29.95,10.0,NW,6.9,-,N/A,,Clear,310,2013-01-21 03:15:00
10:35 PM,28.4,8.6,43,29.96,10.0,NW,9.2,18.4,N/A,,Clear,310,2013-01-21 03:35:00
10:55 PM,28.4,8.6,43,29.96,10.0,WNW,9.2,18.4,N/A,,Clear,300,2013-01-21 03:55:00
11:15 PM,26.6,8.6,47,29.97,10.0,NW,9.2,24.2,N/A,,Clear,310,2013-01-21 04:15:00
11:35 PM,26.6,8.6,47,29.97,10.0,NW,12.7,17.3,N/A,,Clear,310,2013-01-21 04:35:00
11:55 PM,26.6,6.8,43,29.97,10.0,West,9.2,24.2,N/A,,Clear,280,2013-01-21 04:55:00